Stratton, Ohio
Current Conditions -  °F | °C
As of 3:47 PM on Thursday 23 Oct 2014 (Local Time) from KBVI Reporting Station
Broken Clouds Broken Clouds  
Wind Chill: 59°   Ceiling: 3700
Heat Index: 59°   Visibility: 10mi
Dew Point: 43°   Wind: 9mph
Humidity: 55%   Direction: 330°NNW
Pressure: 30.08"   Gusts: 16mph
Location:  40.52°N, 80.63°W
Report Text: KBVI 231947Z 33008G14KT 10SM BKN037 15/06 A3008
Loading
Personal Weather Stations






























Interactive Weather Map
Tropical Storm Tracking
New forecast layout! Learn more

10-Day Weather Forecast

Advertisements
Track Severe Weather on mobile